Have a Safe July 4th! 

Flight Track Log - Related Links

Times and Time Zones

All times are in EDT time to prevent confusion due to time zone crossing. See the RPA3108 flight status page for this flight to view local times or setup timezone preferences in your user account.

Time Position Orientation Groundspeed Altitude Reporting Facility
EDT Latitude Longitude Course Direction KTS MPH feet Rate Location/Type
Wed 09:37:38 AM 39.8500 -75.2833 90° East 158 182 1,000  Level Philadelphia TRACON
Wed 09:39:00 AM 39.8130 -74.8485 105° East  Level FlightAware Approximate
Wed 09:39:08 AM 39.7833 -75.3500 218° Southwest 252 290 4,000  Level Philadelphia TRACON
Wed 09:40:00 AM 39.7871 -74.7190 105° East  Level FlightAware Approximate
Wed 09:40:14 AM 39.7500 -75.2667 117° Southeast 287 330 7,200  Level Philadelphia TRACON
Wed 09:41:00 AM 39.8000 -74.5885 90° East  Level FlightAware Approximate
Wed 09:41:14 AM 39.7500 -75.1667 90° East 299 344 10,200  Level Philadelphia TRACON
Wed 09:42:00 AM 39.8000 -74.4547 90° East  Level FlightAware Approximate
Wed 09:42:55 AM 39.7719 -74.9733 82° East 340 391 12,000  Level New York Center
Wed 09:43:56 AM 39.7797 -74.8686 84° East 340 391 12,000 1,289 Level New York Center
Wed 09:44:56 AM 39.7906 -74.7314 84° East 335 386 14,600 2,231 Climbing New York Center
Wed 09:45:57 AM 39.8008 -74.6158 83° East 347 399 16,500 1,866 Climbing New York Center
Wed 09:46:55 AM 39.8108 -74.4975 84° East 359 413 18,300 1,953 Climbing New York Center
Wed 09:48:46 AM 39.8233 -74.2122 87° East 402 463 22,000 1,884 Climbing Boston Center
Wed 09:49:47 AM 39.8917 -74.1003 51° Northeast 380 437 23,700 1,707 Climbing Boston Center
Wed 09:50:49 AM 39.9744 -73.9969 44° Northeast 389 448 25,500 1,557 Climbing Boston Center
Wed 09:51:58 AM 40.0761 -73.8744 43° Northeast 395 455 27,100 1,282 Climbing Boston Center
Wed 09:53:00 AM 40.1606 -73.7678 44° Northeast 406 467 28,300 934 Climbing Boston Center
Wed 09:54:00 AM 40.2494 -73.6553 44° Northeast 418 481 29,000 347 Climbing Boston Center
Wed 09:55:01 AM 40.3381 -73.5481 43° Northeast 423 487 29,000  Level Boston Center
Wed 09:55:58 AM 40.4286 -73.4378 43° Northeast 428 493 29,000  Level Boston Center
Wed 09:56:58 AM 40.5131 -73.3272 45° Northeast 428 493 29,000  Level Boston Center
Wed 09:57:59 AM 40.6014 -73.2164 44° Northeast 428 493 29,000  Level Boston Center
Wed 09:58:58 AM 40.6917 -73.1053 43° Northeast 433 498 29,000  Level Boston Center
Wed 10:00:00 AM 40.7714 -73.0072 43° Northeast 433 498 29,000  Level Boston Center
Wed 10:00:58 AM 40.8594 -72.8928 44° Northeast 433 498 29,000  Level Boston Center
Wed 10:01:58 AM 40.9286 -72.8028 44° Northeast 433 498 29,000  Level Boston Center
Wed 10:02:59 AM 41.0350 -72.6683 44° Northeast 433 498 29,000  Level Boston Center
Wed 10:04:00 AM 41.1228 -72.5614 43° Northeast 433 498 29,000  Level Boston Center
Wed 10:04:58 AM 41.2103 -72.4511 43° Northeast 433 498 29,000  Level Boston Center
Wed 10:06:10 AM 41.3000 -72.3325 45° Northeast 433 498 29,000  Level Boston Center
Wed 10:07:11 AM 41.4039 -72.2047 43° Northeast 428 493 29,000  Level Boston Center
Wed 10:08:12 AM 41.4933 -72.0908 44° Northeast 428 493 29,000  Level Boston Center
Wed 10:09:12 AM 41.5806 -71.9822 43° Northeast 428 493 29,000  Level Boston Center
Wed 10:10:12 AM 41.6675 -71.8706 44° Northeast 423 487 29,000  Level Boston Center
Wed 10:11:10 AM 41.7544 -71.7611 43° Northeast 423 487 29,000  Level Boston Center
Wed 10:12:10 AM 41.8369 -71.6431 47° Northeast 423 487 29,000  Level Boston Center
Wed 10:13:11 AM 41.9006 -71.5000 59° Northeast 433 498 29,000  Level Boston Center
Wed 10:14:12 AM 41.9575 -71.3542 62° Northeast 438 504 29,000  Level Boston Center
Wed 10:15:13 AM 42.0481 -71.2378 44° Northeast 438 504 29,000 -807 Level Boston Center
Wed 10:16:11 AM 42.1364 -71.1328 41° Northeast 425 489 27,400 -1,062 Descending Boston Center
Wed 10:17:23 AM 42.2414 -71.0100 41° Northeast 420 483 26,700 -992 Descending Boston Center
Wed 10:18:24 AM 42.3275 -70.9097 41° Northeast 413 475 25,200 -1,339 Descending Boston Center
Wed 10:19:24 AM 42.4094 -70.8036 44° Northeast 405 466 24,000 -864 Descending Boston Center
Wed 10:20:22 AM 42.5000 -70.7336 30° Northeast 393 452 23,500 -1,322 Descending Boston Center
Wed 10:21:22 AM 42.6014 -70.6856 19° North 375 432 21,400 -2,033 Descending Boston Center
Wed 10:22:23 AM 42.6967 -70.6319 22° Northeast 375 432 19,400 -1,934 Descending Boston Center
Wed 10:23:23 AM 42.7936 -70.5697 25° Northeast 357 411 17,500 -1,800 Descending Boston Center
Wed 10:24:23 AM 42.8800 -70.5133 26° Northeast 351 404 15,800 -1,835 Descending Boston Center
Wed 10:25:24 AM 42.9667 -70.4567 26° Northeast 351 404 13,800 -1,815 Descending Boston Center
Wed 10:26:22 AM 43.0428 -70.4061 26° Northeast 335 386 12,200 -1,424 Descending Boston Center
Wed 10:27:22 AM 43.1250 -70.3322 33° Northeast 324 373 11,000 -744 Descending Boston Center
Wed 10:28:23 AM 43.2008 -70.2697 31° Northeast 317 365 10,700 -934 Descending Boston Center
Wed 10:29:24 AM 43.2706 -70.2103 32° Northeast 302 348 9,100 -1,835 Descending Boston Center
Wed 10:30:24 AM 43.3383 -70.1619 27° Northeast 283 326 7,000 -2,441 Descending Boston Center
Wed 10:31:22 AM 43.4131 -70.1364 14° North 271 312 4,300 -1,966 Descending Boston Center
Wed 10:32:23 AM 43.4856 -70.1136 13° North 264 304 3,100 -843 Descending Boston Center
Wed 10:33:23 AM 43.5567 -70.1253 353° North 254 292 2,600 -555 Descending Boston Center
Wed 10:34:22 AM 43.6256 -70.1397 351° North 254 292 2,000 -555 Descending Boston Center
Wed 10:35:22 AM 43.6561 -70.2017 304° West 204 235 1,500 -595 Descending Boston Center
Wed 10:36:23 AM 43.6508 -70.2536 262° West 158 182 800 -645 Descending Boston Center
Wed 10:37:23 AM 43.6453 -70.2967 260° West 133 153 200 5,058 Descending Boston Center
Wed 10:38:24 AM 43.6483 -70.3511 274° West 133 153 11,000 5,355 Climbing Boston Center
Wed 10:39:24 AM 43.6494 -70.4028 272° West 133 153 11,000  Level Boston Center

Login

Don't have an account? Register now (free) for customized features, flight alerts, and more!